createdAt,value
2017-04-03T00:00:11.094Z,0
2017-04-03T00:01:11.074Z,0
2017-04-03T00:02:10.743Z,0
2017-04-03T00:03:11.242Z,0
2017-04-03T00:04:11.032Z,0
2017-04-03T00:05:10.700Z,0
2017-04-03T00:06:10.378Z,0
2017-04-03T00:07:10.679Z,0
2017-04-03T00:08:10.659Z,0
2017-04-03T00:09:10.972Z,0
2017-04-03T00:10:10.969Z,0
2017-04-03T00:11:10.942Z,0
2017-04-03T00:12:10.659Z,0
2017-04-03T00:13:10.591Z,0
2017-04-03T00:14:10.911Z,0
2017-04-03T00:15:10.237Z,0
2017-04-03T00:16:10.225Z,0
2017-04-03T00:17:10.834Z,0
2017-04-03T00:18:10.194Z,0
2017-04-03T00:19:10.810Z,0
2017-04-03T00:20:10.064Z,0
2017-04-03T00:21:10.459Z,0
2017-04-03T00:22:10.758Z,0
2017-04-03T00:23:10.739Z,0
2017-04-03T00:24:10.729Z,0
2017-04-03T00:25:10.084Z,0
2017-04-03T00:26:10.070Z,0
2017-04-03T00:27:10.685Z,0
2017-04-03T00:28:10.064Z,0
2017-04-03T00:29:10.027Z,0
2017-04-03T00:30:10.337Z,0
2017-04-03T00:31:10.313Z,0
2017-04-03T00:32:10.623Z,0
2017-04-03T00:33:10.275Z,0
2017-04-03T00:34:10.273Z,0
2017-04-03T00:35:09.933Z,0
2017-04-03T00:36:10.542Z,0
2017-04-03T00:37:10.527Z,0
2017-04-03T00:38:10.205Z,0
2017-04-03T00:39:10.183Z,0
2017-04-03T00:40:10.175Z,0
2017-04-03T00:41:10.467Z,0
2017-04-03T00:42:10.143Z,0
2017-04-03T00:43:10.448Z,0
2017-04-03T00:44:10.127Z,0
2017-04-03T00:45:10.308Z,0
2017-04-03T00:46:10.392Z,0
2017-04-03T00:47:10.063Z,0
2017-04-03T00:48:10.371Z,0
2017-04-03T00:49:10.351Z,0
2017-04-03T00:50:10.328Z,0
2017-04-03T00:51:10.320Z,0
2017-04-03T00:52:09.994Z,0
2017-04-03T00:53:09.974Z,0
2017-04-03T00:54:10.265Z,0
2017-04-03T00:55:09.947Z,0
2017-04-03T00:56:10.235Z,0
2017-04-03T00:57:10.223Z,0
2017-04-03T00:58:10.214Z,0
2017-04-03T00:59:10.189Z,0
2017-04-03T01:00:09.552Z,0
2017-04-03T01:01:10.160Z,0
2017-04-03T01:02:10.153Z,0
2017-04-03T01:03:10.132Z,0
2017-04-03T01:04:10.120Z,0
2017-04-03T01:05:10.106Z,0
2017-04-03T01:06:09.777Z,0
2017-04-03T01:07:10.075Z,0
2017-04-03T01:08:10.060Z,0
2017-04-03T01:09:10.044Z,0
2017-04-03T01:10:10.032Z,0
2017-04-03T01:11:10.019Z,0
2017-04-03T01:12:10.002Z,0
2017-04-03T01:13:09.988Z,0
2017-04-03T01:14:09.653Z,0
2017-04-03T01:15:09.956Z,0
2017-04-03T01:16:09.947Z,0
2017-04-03T01:17:09.938Z,0
2017-04-03T01:18:09.914Z,0
2017-04-03T01:19:09.896Z,0
2017-04-03T01:20:09.564Z,0
2017-04-03T01:21:09.869Z,0
2017-04-03T01:22:09.852Z,0
2017-04-03T01:23:09.209Z,0
2017-04-03T01:24:09.505Z,0
2017-04-03T01:25:09.809Z,0
2017-04-03T01:26:09.477Z,0
2017-04-03T01:27:09.778Z,0
2017-04-03T01:28:09.763Z,0
2017-04-03T01:29:09.742Z,0
2017-04-03T01:30:09.730Z,0
2017-04-03T01:31:09.714Z,0
2017-04-03T01:32:09.700Z,0
2017-04-03T01:33:09.687Z,0
2017-04-03T01:34:09.353Z,0
2017-04-03T01:35:09.659Z,0
2017-04-03T01:36:09.643Z,0
2017-04-03T01:37:09.629Z,0
2017-04-03T01:38:09.614Z,0
2017-04-03T01:39:09.598Z,0
2017-04-03T01:40:09.585Z,0
2017-04-03T01:41:09.261Z,0
2017-04-03T01:42:09.558Z,0
2017-04-03T01:43:09.533Z,0
2017-04-03T01:44:09.522Z,0
2017-04-03T01:45:09.504Z,0
2017-04-03T01:46:09.496Z,0
2017-04-03T01:47:09.485Z,0
2017-04-03T01:48:09.155Z,0
2017-04-03T01:49:09.459Z,0
2017-04-03T01:50:09.127Z,0
2017-04-03T01:51:09.104Z,0
2017-04-03T01:52:09.406Z,0
2017-04-03T01:53:09.388Z,0
2017-04-03T01:54:09.434Z,0
2017-04-03T01:55:09.410Z,0
2017-04-03T01:56:08.719Z,0
2017-04-03T01:57:09.326Z,0
2017-04-03T01:58:09.305Z,0
2017-04-03T01:59:09.298Z,0
2017-04-03T02:00:09.278Z,0
2017-04-03T02:01:09.272Z,0
2017-04-03T02:02:09.290Z,0
2017-04-03T02:03:09.234Z,0
2017-04-03T02:04:09.225Z,0
2017-04-03T02:05:08.896Z,0
2017-04-03T02:06:08.917Z,0
2017-04-03T02:07:09.177Z,0
2017-04-03T02:08:09.175Z,0
2017-04-03T02:09:08.525Z,0
2017-04-03T02:10:09.133Z,0
2017-04-03T02:11:09.166Z,0
2017-04-03T02:12:08.487Z,0
2017-04-03T02:13:09.108Z,0
2017-04-03T02:14:09.073Z,0
2017-04-03T02:15:08.758Z,0
2017-04-03T02:16:08.732Z,0
2017-04-03T02:17:08.430Z,0
2017-04-03T02:18:08.698Z,0
2017-04-03T02:19:08.690Z,0
2017-04-03T02:20:08.989Z,0
2017-04-03T02:21:08.983Z,0
2017-04-03T02:22:08.964Z,0
2017-04-03T02:23:08.959Z,0
2017-04-03T02:24:08.928Z,0
2017-04-03T02:25:08.973Z,0
2017-04-03T02:26:08.885Z,0
2017-04-03T02:27:08.877Z,0
2017-04-03T02:28:08.553Z,0
2017-04-03T02:29:08.540Z,0
2017-04-03T02:30:08.876Z,0
2017-04-03T02:31:08.192Z,0
2017-04-03T02:32:08.486Z,0
2017-04-03T02:33:08.476Z,0
2017-04-03T02:34:08.456Z,0
2017-04-03T02:35:08.758Z,0
2017-04-03T02:36:08.432Z,0
2017-04-03T02:37:08.727Z,0
2017-04-03T02:38:08.712Z,0
2017-04-03T02:39:08.699Z,0
2017-04-03T02:40:08.695Z,0
2017-04-03T02:41:08.674Z,0
2017-04-03T02:42:08.025Z,0
2017-04-03T02:43:08.631Z,0
2017-04-03T02:44:08.362Z,0
2017-04-03T02:45:08.534Z,0
2017-04-03T02:46:08.651Z,0
2017-04-03T02:47:08.599Z,0
2017-04-03T02:48:08.270Z,0
2017-04-03T02:49:08.231Z,0
2017-04-03T02:50:08.224Z,0
2017-04-03T02:51:08.204Z,0
2017-04-03T02:52:07.888Z,0
2017-04-03T02:53:08.502Z,0
2017-04-03T02:54:08.578Z,0
2017-04-03T02:55:08.475Z,0
2017-04-03T02:56:08.451Z,0
2017-04-03T02:57:08.112Z,0
2017-04-03T02:58:08.408Z,0
2017-04-03T02:59:08.402Z,0
2017-04-03T03:00:08.374Z,0
2017-04-03T03:01:08.410Z,0
2017-04-03T03:02:08.031Z,0
2017-04-03T03:03:08.328Z,0
2017-04-03T03:04:08.310Z,0
2017-04-03T03:05:07.985Z,0
2017-04-03T03:06:08.290Z,0
2017-04-03T03:07:08.271Z,0
2017-04-03T03:08:08.256Z,0
2017-04-03T03:09:08.239Z,0
2017-04-03T03:10:07.598Z,0
2017-04-03T03:11:08.248Z,0
2017-04-03T03:12:08.206Z,0
2017-04-03T03:13:08.188Z,0
2017-04-03T03:14:08.190Z,0
2017-04-03T03:15:07.843Z,0
2017-04-03T03:16:07.826Z,0
2017-04-03T03:17:07.802Z,0
2017-04-03T03:18:08.105Z,0
2017-04-03T03:19:08.084Z,0
2017-04-03T03:20:08.073Z,0
2017-04-03T03:21:07.751Z,0
2017-04-03T03:22:07.731Z,0
2017-04-03T03:23:07.715Z,0
2017-04-03T03:24:07.697Z,0
2017-04-03T03:25:07.997Z,0
2017-04-03T03:26:07.668Z,0
2017-04-03T03:27:07.646Z,0
2017-04-03T03:28:07.954Z,0
2017-04-03T03:29:07.930Z,0
2017-04-03T03:30:07.918Z,0
2017-04-03T03:31:07.904Z,0
2017-04-03T03:32:07.888Z,0
2017-04-03T03:33:07.869Z,0
2017-04-03T03:34:07.589Z,0
2017-04-03T03:35:07.531Z,0
2017-04-03T03:36:07.823Z,0
2017-04-03T03:37:07.183Z,0
2017-04-03T03:38:07.991Z,0
2017-04-03T03:39:07.782Z,0
2017-04-03T03:40:07.462Z,0
2017-04-03T03:41:07.744Z,0
2017-04-03T03:42:07.727Z,0
2017-04-03T03:43:07.722Z,0
2017-04-03T03:44:07.703Z,0
2017-04-03T03:45:07.699Z,0
2017-04-03T03:46:07.666Z,0
2017-04-03T03:47:07.672Z,0
2017-04-03T03:48:07.651Z,0
2017-04-03T03:49:07.634Z,0
2017-04-03T03:50:07.613Z,0
2017-04-03T03:51:07.599Z,0
2017-04-03T03:52:06.952Z,0
2017-04-03T03:53:07.248Z,0
2017-04-03T03:54:07.560Z,0
2017-04-03T03:55:07.532Z,0
2017-04-03T03:56:07.518Z,0
2017-04-03T03:57:07.513Z,0
2017-04-03T03:58:07.488Z,0
2017-04-03T03:59:07.172Z,0
2017-04-03T04:00:07.457Z,0
2017-04-03T04:01:07.161Z,0
2017-04-03T04:02:07.425Z,0
2017-04-03T04:03:07.490Z,0
2017-04-03T04:04:07.079Z,0
2017-04-03T04:05:07.372Z,0
2017-04-03T04:06:07.363Z,0
2017-04-03T04:07:07.349Z,0
2017-04-03T04:08:07.335Z,0
2017-04-03T04:09:07.327Z,0
2017-04-03T04:10:07.303Z,0
2017-04-03T04:11:07.285Z,0
2017-04-03T04:12:07.306Z,0
2017-04-03T04:13:06.945Z,0
2017-04-03T04:14:07.244Z,0
2017-04-03T04:15:06.911Z,0
2017-04-03T04:16:07.207Z,0
2017-04-03T04:17:07.194Z,0
2017-04-03T04:18:07.233Z,0
2017-04-03T04:19:06.848Z,0
2017-04-03T04:20:07.146Z,0
2017-04-03T04:21:07.136Z,0
2017-04-03T04:22:07.116Z,0
2017-04-03T04:23:07.098Z,0
2017-04-03T04:24:06.769Z,0
2017-04-03T04:25:07.078Z,0
2017-04-03T04:26:07.055Z,0
2017-04-03T04:27:06.730Z,0
2017-04-03T04:28:06.716Z,0
2017-04-03T04:29:07.013Z,0
2017-04-03T04:30:06.680Z,0
2017-04-03T04:31:06.974Z,0
2017-04-03T04:32:06.963Z,0
2017-04-03T04:33:06.954Z,0
2017-04-03T04:34:06.618Z,0
2017-04-03T04:35:06.913Z,0
2017-04-03T04:36:06.592Z,0
2017-04-03T04:37:06.886Z,0
2017-04-03T04:38:06.868Z,4
2017-04-03T04:39:06.859Z,0
2017-04-03T04:40:05.901Z,0
2017-04-03T04:41:06.823Z,4
2017-04-03T04:42:06.850Z,4
2017-04-03T04:43:06.793Z,4
2017-04-03T04:44:06.789Z,4
2017-04-03T04:45:07.166Z,4
2017-04-03T04:46:06.758Z,8
2017-04-03T04:47:06.738Z,8
2017-04-03T04:48:06.097Z,8
2017-04-03T04:49:06.764Z,12
2017-04-03T04:50:06.691Z,12
2017-04-03T04:51:06.675Z,12
2017-04-03T04:52:06.344Z,12
2017-04-03T04:53:06.039Z,16
2017-04-03T04:54:06.631Z,16
2017-04-03T04:55:06.633Z,20
2017-04-03T04:56:06.603Z,20
2017-04-03T04:57:06.583Z,24
2017-04-03T04:58:06.562Z,28
2017-04-03T04:59:06.602Z,28
2017-04-03T05:00:06.534Z,32
2017-04-03T05:01:06.523Z,36
2017-04-03T05:02:06.500Z,40
2017-04-03T05:03:06.559Z,40
2017-04-03T05:04:06.170Z,44
2017-04-03T05:05:06.488Z,52
2017-04-03T05:06:06.445Z,56
2017-04-03T05:07:06.112Z,60
2017-04-03T05:08:06.104Z,68
2017-04-03T05:09:06.387Z,72
2017-04-03T05:10:06.377Z,68
2017-04-03T05:11:06.359Z,72
2017-04-03T05:12:06.339Z,80
2017-04-03T05:13:06.328Z,84
2017-04-03T05:14:06.015Z,92
2017-04-03T05:15:05.985Z,96
2017-04-03T05:16:05.968Z,100
2017-04-03T05:17:06.272Z,104
2017-04-03T05:18:06.253Z,112
2017-04-03T05:19:05.921Z,120
2017-04-03T05:20:06.228Z,128
2017-04-03T05:21:06.206Z,136
2017-04-03T05:22:06.217Z,148
2017-04-03T05:23:05.860Z,160
2017-04-03T05:24:06.162Z,172
2017-04-03T05:25:05.860Z,184
2017-04-03T05:26:06.139Z,196
2017-04-03T05:27:06.113Z,208
2017-04-03T05:28:05.789Z,220
2017-04-03T05:29:06.081Z,224
2017-04-03T05:30:06.103Z,224
2017-04-03T05:31:05.748Z,244
2017-04-03T05:32:06.057Z,244
2017-04-03T05:33:06.016Z,264
2017-04-03T05:34:06.019Z,268
2017-04-03T05:35:06.000Z,292
2017-04-03T05:36:05.996Z,280
2017-04-03T05:37:05.664Z,292
2017-04-03T05:38:05.957Z,308
2017-04-03T05:39:05.633Z,332
2017-04-03T05:40:05.628Z,352
2017-04-03T05:41:05.622Z,360
2017-04-03T05:42:05.559Z,376
2017-04-03T05:43:05.892Z,384
2017-04-03T05:44:05.529Z,376
2017-04-03T05:45:05.510Z,376
2017-04-03T05:46:05.501Z,392
2017-04-03T05:47:05.800Z,412
2017-04-03T05:48:05.786Z,424
2017-04-03T05:49:05.773Z,428
2017-04-03T05:50:05.752Z,432
2017-04-03T05:51:05.417Z,440
2017-04-03T05:52:05.442Z,440
2017-04-03T05:53:05.706Z,444
2017-04-03T05:54:05.733Z,448
2017-04-03T05:55:05.677Z,448
2017-04-03T05:56:05.667Z,460
2017-04-03T05:57:05.644Z,484
2017-04-03T05:58:05.643Z,516
2017-04-03T05:59:05.623Z,548
2017-04-03T06:00:05.279Z,572
2017-04-03T06:01:05.573Z,576
2017-04-03T06:02:05.562Z,556
2017-04-03T06:03:05.545Z,576
2017-04-03T06:04:05.528Z,584
2017-04-03T06:05:05.204Z,592
2017-04-03T06:06:05.502Z,636
2017-04-03T06:07:05.476Z,680
2017-04-03T06:08:05.462Z,716
2017-04-03T06:09:05.133Z,736
2017-04-03T06:10:05.119Z,724
2017-04-03T06:11:05.102Z,748
2017-04-03T06:12:05.400Z,768
2017-04-03T06:13:05.384Z,764
2017-04-03T06:14:05.065Z,776
2017-04-03T06:15:05.346Z,772
2017-04-03T06:16:05.024Z,768
2017-04-03T06:17:05.007Z,784
2017-04-03T06:18:05.306Z,808
2017-04-03T06:19:05.334Z,844
2017-04-03T06:20:04.962Z,856
2017-04-03T06:21:05.263Z,860
2017-04-03T06:22:05.248Z,896
2017-04-03T06:23:05.237Z,960
2017-04-03T06:24:05.113Z,1020
2017-04-03T06:25:05.416Z,1004
2017-04-03T06:26:05.183Z,1056
2017-04-03T06:27:05.169Z,1124
2017-04-03T06:28:04.532Z,1188
2017-04-03T06:29:05.138Z,1152
2017-04-03T06:30:05.129Z,1092
2017-04-03T06:31:05.102Z,1096
2017-04-03T06:32:05.091Z,1080
2017-04-03T06:33:05.086Z,1080
2017-04-03T06:34:05.050Z,1096
2017-04-03T06:35:05.047Z,1096
2017-04-03T06:36:04.418Z,1112
2017-04-03T06:37:05.037Z,1180
2017-04-03T06:38:04.685Z,1348
2017-04-03T06:39:04.981Z,1444
2017-04-03T06:40:04.974Z,1548
2017-04-03T06:41:04.958Z,1600
2017-04-03T06:42:04.625Z,1616
2017-04-03T06:43:04.978Z,1528
2017-04-03T06:44:05.116Z,1524
2017-04-03T06:45:04.888Z,1544
2017-04-03T06:46:04.569Z,1548
2017-04-03T06:47:05.066Z,1524
2017-04-03T06:48:04.530Z,1492
2017-04-03T06:49:04.515Z,1436
2017-04-03T06:50:04.822Z,1324
2017-04-03T06:51:04.807Z,1300
2017-04-03T06:52:04.783Z,1344
2017-04-03T06:53:04.514Z,1424
2017-04-03T06:54:04.832Z,1524
2017-04-03T06:55:04.730Z,1572
2017-04-03T06:56:04.721Z,1652
2017-04-03T06:57:04.705Z,1772
2017-04-03T06:58:04.694Z,1876
2017-04-03T06:59:04.666Z,1952
2017-04-03T07:00:04.346Z,2004
2017-04-03T07:01:04.646Z,2052
2017-04-03T07:02:04.631Z,1992
2017-04-03T07:03:04.617Z,1936
2017-04-03T07:04:04.794Z,2012
2017-04-03T07:05:04.608Z,2092
2017-04-03T07:06:04.571Z,2112
2017-04-03T07:07:04.226Z,2124
2017-04-03T07:08:04.218Z,2124
2017-04-03T07:09:04.516Z,2148
2017-04-03T07:10:04.507Z,2220
2017-04-03T07:11:04.479Z,2188
2017-04-03T07:12:04.467Z,2280
2017-04-03T07:13:04.139Z,2412
2017-04-03T07:14:04.440Z,2432
2017-04-03T07:15:04.423Z,2456
2017-04-03T07:16:04.411Z,2452
2017-04-03T07:17:04.333Z,2500
2017-04-03T07:18:04.376Z,2544
2017-04-03T07:19:04.366Z,2500
2017-04-03T07:20:04.342Z,2428
2017-04-03T07:21:04.379Z,2424
2017-04-03T07:22:04.330Z,2444
2017-04-03T07:23:04.294Z,2412
2017-04-03T07:24:04.484Z,2416
2017-04-03T07:25:04.285Z,2464
2017-04-03T07:26:03.986Z,2532
2017-04-03T07:27:04.236Z,2556
2017-04-03T07:28:04.260Z,2584
2017-04-03T07:29:04.251Z,2676
2017-04-03T07:30:04.190Z,2784
2017-04-03T07:31:04.178Z,2812
2017-04-03T07:32:03.861Z,2860
2017-04-03T07:33:04.152Z,2852
2017-04-03T07:34:04.193Z,2904
2017-04-03T07:35:04.108Z,2964
2017-04-03T07:36:03.829Z,3064
2017-04-03T07:37:03.769Z,3228
2017-04-03T07:38:04.068Z,3220
2017-04-03T07:39:04.055Z,3092
2017-04-03T07:40:04.037Z,2968
2017-04-03T07:41:04.019Z,2924
2017-04-03T07:42:04.007Z,2968
2017-04-03T07:43:03.678Z,3044
2017-04-03T07:44:03.710Z,3080
2017-04-03T07:45:04.013Z,2980
2017-04-03T07:46:03.983Z,2856
2017-04-03T07:47:03.640Z,2812
2017-04-03T07:48:03.921Z,2832
2017-04-03T07:49:03.899Z,2860
2017-04-03T07:50:03.883Z,2920
2017-04-03T07:51:03.875Z,2948
2017-04-03T07:52:03.854Z,2936
2017-04-03T07:53:04.049Z,2908
2017-04-03T07:54:03.820Z,2864
2017-04-03T07:55:03.866Z,2796
2017-04-03T07:56:03.835Z,2732
2017-04-03T07:57:03.835Z,2716
2017-04-03T07:58:03.474Z,2716
2017-04-03T07:59:03.960Z,2732
2017-04-03T08:00:18.002Z,2772
2017-04-03T08:01:03.721Z,2736
2017-04-03T08:02:03.701Z,2704
2017-04-03T08:03:03.689Z,2812
2017-04-03T08:04:03.670Z,2988
2017-04-03T08:05:03.663Z,3116
2017-04-03T08:06:03.329Z,3172
2017-04-03T08:07:03.642Z,3244
2017-04-03T08:08:03.858Z,3288
2017-04-03T08:09:03.654Z,3296
2017-04-03T08:10:03.588Z,3340
2017-04-03T08:11:03.567Z,3396
2017-04-03T08:12:03.606Z,3412
2017-04-03T08:13:03.535Z,3468
2017-04-03T08:14:03.530Z,3612
2017-04-03T08:15:03.504Z,3688
2017-04-03T08:16:03.517Z,3720
2017-04-03T08:17:03.530Z,3704
2017-04-03T08:18:03.193Z,3676
2017-04-03T08:19:03.448Z,3688
2017-04-03T08:20:03.118Z,3672
2017-04-03T08:21:03.420Z,3652
2017-04-03T08:22:03.503Z,3612
2017-04-03T08:23:03.428Z,3564
2017-04-03T08:24:03.374Z,3600
2017-04-03T08:25:03.088Z,3672
2017-04-03T08:26:03.347Z,3724
2017-04-03T08:27:03.333Z,3736
2017-04-03T08:28:03.315Z,3736
2017-04-03T08:29:03.691Z,3740
2017-04-03T08:30:03.302Z,3724
2017-04-03T08:31:03.276Z,3696
2017-04-03T08:32:03.254Z,3696
2017-04-03T08:33:02.929Z,3648
2017-04-03T08:34:02.920Z,3528
2017-04-03T08:35:02.898Z,3456
2017-04-03T08:36:03.193Z,3508
2017-04-03T08:37:03.195Z,3680
2017-04-03T08:38:03.163Z,3768
2017-04-03T08:39:03.156Z,3904
2017-04-03T08:40:02.829Z,3960
2017-04-03T08:41:03.124Z,4100
2017-04-03T08:42:03.110Z,4408
2017-04-03T08:43:03.095Z,4676
2017-04-03T08:44:03.079Z,4584
2017-04-03T08:45:03.064Z,4468
2017-04-03T08:46:03.260Z,4172
2017-04-03T08:47:02.774Z,4008
2017-04-03T08:48:03.029Z,3892
2017-04-03T08:49:03.017Z,3884
2017-04-03T08:50:02.688Z,3892
2017-04-03T08:51:02.982Z,3796
2017-04-03T08:52:02.671Z,3768
2017-04-03T08:53:02.635Z,3792
2017-04-03T08:54:02.624Z,3816
2017-04-03T08:55:02.921Z,3832
2017-04-03T08:56:02.594Z,3864
2017-04-03T08:57:02.891Z,3868
2017-04-03T08:58:02.874Z,3864
2017-04-03T08:59:02.867Z,3860
2017-04-03T09:00:02.889Z,3924
2017-04-03T09:01:02.832Z,3944
2017-04-03T09:02:02.503Z,3960
2017-04-03T09:03:02.489Z,4008
2017-04-03T09:04:02.788Z,4140
2017-04-03T09:05:02.807Z,4268
2017-04-03T09:06:02.488Z,4404
2017-04-03T09:07:02.750Z,4544
2017-04-03T09:08:02.834Z,4736
2017-04-03T09:09:02.720Z,4932
2017-04-03T09:10:02.699Z,5068
2017-04-03T09:11:02.726Z,5124
2017-04-03T09:12:02.680Z,5148
2017-04-03T09:13:02.659Z,5180
2017-04-03T09:14:02.648Z,5320
2017-04-03T09:15:02.628Z,5444
2017-04-03T09:16:02.620Z,5596
2017-04-03T09:17:02.297Z,5784
2017-04-03T09:18:02.594Z,6000
2017-04-03T09:19:02.259Z,6192
2017-04-03T09:20:02.558Z,6284
2017-04-03T09:21:02.549Z,6280
2017-04-03T09:22:02.538Z,6224
2017-04-03T09:23:02.201Z,6268
2017-04-03T09:24:02.547Z,6312
2017-04-03T09:25:02.487Z,6240
2017-04-03T09:26:02.482Z,6128
2017-04-03T09:27:02.474Z,6020
2017-04-03T09:28:02.454Z,5988
2017-04-03T09:29:02.479Z,6096
2017-04-03T09:30:02.422Z,6332
2017-04-03T09:31:02.443Z,6516
2017-04-03T09:32:02.404Z,6648
2017-04-03T09:33:02.075Z,6788
2017-04-03T09:34:02.078Z,6920
2017-04-03T09:35:02.354Z,7104
2017-04-03T09:36:02.029Z,7324
2017-04-03T09:37:02.324Z,7516
2017-04-03T09:38:02.307Z,7672
2017-04-03T09:39:01.985Z,7800
2017-04-03T09:40:02.282Z,7928
2017-04-03T09:41:02.296Z,8084
2017-04-03T09:42:01.982Z,8268
2017-04-03T09:43:02.293Z,8448
2017-04-03T09:44:02.283Z,8492
2017-04-03T09:45:02.253Z,8452
2017-04-03T09:46:02.203Z,8260
2017-04-03T09:47:02.186Z,7972
2017-04-03T09:48:02.182Z,7748
2017-04-03T09:49:02.161Z,7696
2017-04-03T09:50:02.150Z,7632
2017-04-03T09:51:02.136Z,7596
2017-04-03T09:52:01.843Z,7532
2017-04-03T09:53:02.249Z,7472
2017-04-03T09:54:02.165Z,7352
2017-04-03T09:55:01.808Z,7140
2017-04-03T09:56:02.089Z,6924
2017-04-03T09:57:02.065Z,6792
2017-04-03T09:58:02.038Z,6752
2017-04-03T09:59:02.024Z,6784
2017-04-03T10:00:02.018Z,6884
2017-04-03T10:01:01.998Z,7028
2017-04-03T10:02:01.999Z,7176
2017-04-03T10:03:01.990Z,7388
2017-04-03T10:04:01.360Z,7652
2017-04-03T10:05:01.951Z,8016
2017-04-03T10:06:01.326Z,8500
2017-04-03T10:07:01.633Z,9168
2017-04-03T10:08:01.596Z,9848
2017-04-03T10:09:01.925Z,10096
2017-04-03T10:10:01.598Z,9788
2017-04-03T10:11:01.602Z,9384
2017-04-03T10:12:01.882Z,9060
2017-04-03T10:13:01.885Z,8860
2017-04-03T10:14:01.864Z,8968
2017-04-03T10:15:01.838Z,9080
2017-04-03T10:16:01.498Z,8976
2017-04-03T10:17:01.795Z,8588
2017-04-03T10:18:01.772Z,8148
2017-04-03T10:19:01.469Z,7792
2017-04-03T10:20:01.765Z,7520
2017-04-03T10:21:01.449Z,7340
2017-04-03T10:22:01.729Z,7244
2017-04-03T10:23:01.408Z,7256
2017-04-03T10:24:01.429Z,7460
2017-04-03T10:25:01.698Z,7864
2017-04-03T10:26:01.679Z,8348
2017-04-03T10:27:01.660Z,8832
2017-04-03T10:28:01.649Z,9288
2017-04-03T10:29:01.324Z,9648
2017-04-03T10:30:01.637Z,9940
2017-04-03T10:31:01.307Z,10020
2017-04-03T10:32:01.291Z,9880
2017-04-03T10:33:00.960Z,9440
2017-04-03T10:34:01.579Z,8968
2017-04-03T10:35:01.566Z,8656
2017-04-03T10:36:01.235Z,8552
2017-04-03T10:37:01.234Z,8576
2017-04-03T10:38:00.900Z,8652
2017-04-03T10:39:01.201Z,8744
2017-04-03T10:40:01.192Z,8764
2017-04-03T10:41:01.175Z,8688
2017-04-03T10:42:01.532Z,8572
2017-04-03T10:43:01.176Z,8496
2017-04-03T10:44:01.148Z,8452
2017-04-03T10:45:01.453Z,8408
2017-04-03T10:46:01.641Z,8464
2017-04-03T10:47:01.425Z,8596
2017-04-03T10:48:01.090Z,8752
2017-04-03T10:49:01.390Z,8896
2017-04-03T10:50:01.432Z,8916
2017-04-03T10:51:01.364Z,8840
2017-04-03T10:52:01.349Z,8780
2017-04-03T10:53:01.341Z,8892
2017-04-03T10:54:01.018Z,9156
2017-04-03T10:55:01.322Z,9476
2017-04-03T10:56:01.019Z,9884
2017-04-03T10:57:01.312Z,10376
2017-04-03T10:58:01.310Z,10732
2017-04-03T10:59:01.281Z,10668
2017-04-03T11:00:01.320Z,10408
2017-04-03T11:01:00.638Z,10516
2017-04-03T11:02:01.459Z,11104
2017-04-03T11:03:00.953Z,11896
2017-04-03T11:04:01.235Z,12444
2017-04-03T11:05:01.206Z,12616
2017-04-03T11:06:00.876Z,12776
2017-04-03T11:07:00.901Z,13144
2017-04-03T11:08:01.200Z,13696
2017-04-03T11:09:01.161Z,14548
2017-04-03T11:10:00.842Z,18944
2017-04-03T11:11:00.515Z,16016
2017-04-03T11:12:00.614Z,15680
2017-04-03T11:13:01.139Z,14940
2017-04-03T11:14:01.110Z,14116
2017-04-03T11:15:00.777Z,13644
2017-04-03T11:16:01.085Z,13116
2017-04-03T11:17:01.086Z,12708
2017-04-03T11:18:00.753Z,12784
2017-04-03T11:19:00.941Z,13148
2017-04-03T11:20:01.083Z,13608
2017-04-03T11:21:01.025Z,14744
2017-04-03T11:22:01.012Z,16236
2017-04-03T11:23:00.706Z,16060
2017-04-03T11:24:00.673Z,15128
2017-04-03T11:25:00.974Z,14680
2017-04-03T11:26:00.988Z,14356
2017-04-03T11:27:00.954Z,14212
2017-04-03T11:28:00.980Z,14832
2017-04-03T11:29:00.945Z,16036
2017-04-03T11:30:00.623Z,17376
2017-04-03T11:31:00.599Z,17472
2017-04-03T11:32:00.898Z,17216
2017-04-03T11:33:00.600Z,17632
2017-04-03T11:34:00.902Z,18080
2017-04-03T11:35:00.926Z,18784
2017-04-03T11:36:00.861Z,18624
2017-04-03T11:37:00.540Z,18432
2017-04-03T11:38:00.534Z,18784
2017-04-03T11:39:00.525Z,19680
2017-04-03T11:40:00.508Z,21248
2017-04-03T11:41:00.812Z,24000
2017-04-03T11:42:00.796Z,38976
2017-04-03T11:43:00.791Z,25632
2017-04-03T11:44:00.800Z,24576
2017-04-03T11:45:00.769Z,35936
2017-04-03T11:46:00.769Z,25408
2017-04-03T11:47:00.794Z,26368
2017-04-03T11:48:00.752Z,27456
2017-04-03T11:49:00.431Z,29088
2017-04-03T11:50:00.735Z,29632
2017-04-03T11:51:00.419Z,34976
2017-04-03T11:52:00.714Z,40800
2017-04-03T11:53:00.087Z,38624
2017-04-03T11:54:00.384Z,41600
2017-04-03T11:55:00.720Z,36640
2017-04-03T11:56:00.721Z,35776
2017-04-03T11:57:00.668Z,38656
2017-04-03T11:58:00.762Z,40192
2017-04-03T11:59:00.341Z,83904
2017-04-03T12:00:00.725Z,87712
2017-04-03T12:01:00.652Z,80416
2017-04-03T12:02:00.634Z,90720
2017-04-03T12:03:00.003Z,90144
2017-04-03T12:04:00.629Z,90496
2017-04-03T12:05:00.334Z,93248
2017-04-03T12:06:00.301Z,97632
2017-04-03T12:07:00.623Z,97824
2017-04-03T12:08:00.605Z,94048
2017-04-03T12:09:00.298Z,92736
2017-04-03T12:10:00.609Z,88000
2017-04-03T12:11:00.610Z,83040
2017-04-03T12:12:00.287Z,82688
2017-04-03T12:13:00.592Z,82816
2017-04-03T12:14:00.589Z,84896
2017-04-03T12:15:00.590Z,85728
2017-04-03T12:16:00.592Z,87008
2017-04-03T12:17:00.270Z,84512
2017-04-03T12:18:00.270Z,81824
2017-04-03T12:19:00.589Z,76544
2017-04-03T12:20:00.278Z,73408
2017-04-03T12:21:00.577Z,72064
2017-04-03T12:22:00.589Z,72576
2017-04-03T12:23:00.582Z,76768
2017-04-03T12:24:00.585Z,81184
2017-04-03T12:25:00.585Z,84064
2017-04-03T12:26:00.651Z,86848
2017-04-03T12:27:00.599Z,88128
2017-04-03T12:28:00.270Z,87616
2017-04-03T12:29:00.574Z,85504
2017-04-03T12:30:00.583Z,83872
2017-04-03T12:31:00.578Z,80960
2017-04-03T12:32:00.635Z,81824
2017-04-03T12:33:00.582Z,83744
2017-04-03T12:34:00.608Z,86784
2017-04-03T12:35:00.295Z,89664
2017-04-03T12:36:00.590Z,92704
2017-04-03T12:37:00.627Z,96160
2017-04-03T12:38:00.590Z,97504
2017-04-03T12:39:00.585Z,95520
2017-04-03T12:40:00.585Z,94432
2017-04-03T12:41:00.593Z,91968
2017-04-03T12:42:00.685Z,91360
2017-04-03T12:43:00.300Z,91168
2017-04-03T12:44:00.651Z,94144
2017-04-03T12:45:00.607Z,96256
2017-04-03T12:46:00.857Z,97184
2017-04-03T12:47:00.289Z,96512
2017-04-03T12:48:00.607Z,93664
2017-04-03T12:49:00.002Z,86016
2017-04-03T12:50:00.606Z,93344
2017-04-03T12:51:00.361Z,84480
2017-04-03T12:52:00.300Z,82112
2017-04-03T12:53:00.020Z,78080
2017-04-03T12:54:00.619Z,79360
2017-04-03T12:55:00.710Z,80384
2017-04-03T12:56:00.615Z,79872
2017-04-03T12:57:00.625Z,78336
2017-04-03T12:58:00.311Z,75424
2017-04-03T12:59:00.628Z,73184
2017-04-03T13:00:00.628Z,75168
2017-04-03T13:01:00.640Z,77248
2017-04-03T13:02:00.628Z,81440
2017-04-03T13:03:00.835Z,83520
2017-04-03T13:04:00.635Z,86624
2017-04-03T13:05:00.636Z,87616
2017-04-03T13:06:00.643Z,84352
2017-04-03T13:07:00.637Z,79808
2017-04-03T13:08:00.648Z,77344
2017-04-03T13:09:00.650Z,75168
2017-04-03T13:10:00.649Z,71872
2017-04-03T13:11:00.653Z,73760
2017-04-03T13:12:00.342Z,74656
2017-04-03T13:13:00.658Z,77504
2017-04-03T13:14:00.347Z,78912
2017-04-03T13:15:00.362Z,82368
2017-04-03T13:16:00.044Z,84576
2017-04-03T13:17:00.364Z,84544
2017-04-03T13:18:00.680Z,82432
2017-04-03T13:19:00.672Z,81696
2017-04-03T13:20:00.670Z,81760
2017-04-03T13:21:00.094Z,81760
2017-04-03T13:22:00.414Z,82688
2017-04-03T13:23:00.675Z,84704
2017-04-03T13:24:00.674Z,85408
2017-04-03T13:25:00.679Z,84256
2017-04-03T13:26:00.682Z,83008
2017-04-03T13:27:00.125Z,82272
2017-04-03T13:28:00.373Z,83072
2017-04-03T13:29:00.380Z,86176
2017-04-03T13:30:00.369Z,88096
2017-04-03T13:31:00.707Z,89664
2017-04-03T13:32:00.686Z,89504
2017-04-03T13:33:00.688Z,85472
2017-04-03T13:34:00.376Z,79584
2017-04-03T13:35:00.692Z,77056
2017-04-03T13:36:00.697Z,76800
2017-04-03T13:37:00.381Z,77248
2017-04-03T13:38:00.694Z,79584
2017-04-03T13:39:00.698Z,81568
2017-04-03T13:40:00.744Z,78336
2017-04-03T13:41:00.697Z,73248
2017-04-03T13:42:00.700Z,69664
2017-04-03T13:43:00.696Z,65440
2017-04-03T13:44:00.705Z,65696
2017-04-03T13:45:00.704Z,70208